Terminal Aerodrome Forecast
Issued by NWS Buffalo, NY

Home | Current Version | Previous Version | Text Only | Print | Product List | Glossary On
Versions: 1 2 3 4 5 6 7 8 9 10 11 12 13 14 15 16 17 18 19 20 21 22 23 24 25 26 27 28 29 30 31 32 33
000
FTUS41 KBUF 211500 AAB
TAFROC
TAF AMD
KROC 211511Z 2115/2212 25004KT 2SM -SHRA OVC005
     FM211700 32004KT 6SM BR VCSH OVC012
     FM211900 01009KT 6SM -SHRA BR OVC012
     FM212300 02015KT 6SM -SHRA BR OVC007=

USA.gov is the U.S. government's official web portal to all federal, state and local government web resources and services.